sensor_id;sensor_type;location;lat;lon;timestamp;P1;durP1;ratioP1;P2;durP2;ratioP2
12687;SDS011;6408;59.388;17.798;2023-06-10T00:00:47;1.13;;;0.80;;
12687;SDS011;6408;59.388;17.798;2023-06-10T00:03:17;2.33;;;1.00;;
12687;SDS011;6408;59.388;17.798;2023-06-10T00:05:44;0.90;;;0.83;;
12687;SDS011;6408;59.388;17.798;2023-06-10T00:08:12;2.67;;;1.00;;
12687;SDS011;6408;59.388;17.798;2023-06-10T00:10:40;0.70;;;0.70;;
12687;SDS011;6408;59.388;17.798;2023-06-10T00:13:08;1.97;;;0.97;;
12687;SDS011;6408;59.388;17.798;2023-06-10T00:15:36;0.97;;;0.80;;
12687;SDS011;6408;59.388;17.798;2023-06-10T00:18:03;1.27;;;0.83;;
12687;SDS011;6408;59.388;17.798;2023-06-10T00:20:36;1.23;;;1.00;;
12687;SDS011;6408;59.388;17.798;2023-06-10T00:23:04;0.93;;;0.90;;
12687;SDS011;6408;59.388;17.798;2023-06-10T00:25:33;1.43;;;0.70;;
12687;SDS011;6408;59.388;17.798;2023-06-10T00:28:01;2.30;;;0.87;;
12687;SDS011;6408;59.388;17.798;2023-06-10T00:30:28;1.63;;;1.00;;
12687;SDS011;6408;59.388;17.798;2023-06-10T00:32:55;1.47;;;0.80;;
12687;SDS011;6408;59.388;17.798;2023-06-10T00:35:22;1.00;;;0.87;;
12687;SDS011;6408;59.388;17.798;2023-06-10T00:37:52;0.83;;;0.70;;
12687;SDS011;6408;59.388;17.798;2023-06-10T00:40:19;1.33;;;0.70;;
12687;SDS011;6408;59.388;17.798;2023-06-10T00:42:46;1.33;;;0.70;;
12687;SDS011;6408;59.388;17.798;2023-06-10T00:45:13;0.67;;;0.60;;
12687;SDS011;6408;59.388;17.798;2023-06-10T00:47:41;1.50;;;0.73;;
12687;SDS011;6408;59.388;17.798;2023-06-10T00:50:09;2.33;;;0.87;;
12687;SDS011;6408;59.388;17.798;2023-06-10T00:52:37;1.33;;;0.90;;
12687;SDS011;6408;59.388;17.798;2023-06-10T00:55:07;2.23;;;0.80;;
12687;SDS011;6408;59.388;17.798;2023-06-10T00:57:34;0.60;;;0.60;;
12687;SDS011;6408;59.388;17.798;2023-06-10T01:00:04;1.57;;;0.90;;
12687;SDS011;6408;59.388;17.798;2023-06-10T01:02:33;1.57;;;0.60;;
12687;SDS011;6408;59.388;17.798;2023-06-10T01:05:01;0.73;;;0.73;;
12687;SDS011;6408;59.388;17.798;2023-06-10T01:07:30;0.67;;;0.67;;
12687;SDS011;6408;59.388;17.798;2023-06-10T01:10:05;1.43;;;0.83;;
12687;SDS011;6408;59.388;17.798;2023-06-10T01:12:39;1.40;;;0.80;;
12687;SDS011;6408;59.388;17.798;2023-06-10T01:15:13;1.07;;;0.70;;
12687;SDS011;6408;59.388;17.798;2023-06-10T01:17:53;0.87;;;0.70;;
12687;SDS011;6408;59.388;17.798;2023-06-10T01:20:22;1.10;;;0.90;;
12687;SDS011;6408;59.388;17.798;2023-06-10T01:22:53;1.63;;;0.90;;
12687;SDS011;6408;59.388;17.798;2023-06-10T01:25:21;1.33;;;0.90;;
12687;SDS011;6408;59.388;17.798;2023-06-10T01:27:53;1.43;;;1.00;;
12687;SDS011;6408;59.388;17.798;2023-06-10T01:30:28;3.20;;;1.30;;
12687;SDS011;6408;59.388;17.798;2023-06-10T01:32:59;5.47;;;1.50;;
12687;SDS011;6408;59.388;17.798;2023-06-10T01:35:28;2.30;;;1.30;;
12687;SDS011;6408;59.388;17.798;2023-06-10T01:38:00;2.90;;;1.60;;
12687;SDS011;6408;59.388;17.798;2023-06-10T01:40:29;5.93;;;2.10;;
12687;SDS011;6408;59.388;17.798;2023-06-10T01:42:57;6.83;;;2.03;;
12687;SDS011;6408;59.388;17.798;2023-06-10T01:45:24;6.27;;;2.60;;
12687;SDS011;6408;59.388;17.798;2023-06-10T01:47:51;9.13;;;3.13;;
12687;SDS011;6408;59.388;17.798;2023-06-10T01:50:18;7.93;;;2.90;;
12687;SDS011;6408;59.388;17.798;2023-06-10T01:52:46;9.23;;;3.23;;
12687;SDS011;6408;59.388;17.798;2023-06-10T01:55:14;10.17;;;4.17;;
12687;SDS011;6408;59.388;17.798;2023-06-10T01:57:42;11.57;;;3.83;;
12687;SDS011;6408;59.388;17.798;2023-06-10T02:00:10;16.07;;;4.93;;
12687;SDS011;6408;59.388;17.798;2023-06-10T02:02:38;15.67;;;4.50;;
12687;SDS011;6408;59.388;17.798;2023-06-10T02:05:05;14.83;;;6.10;;
12687;SDS011;6408;59.388;17.798;2023-06-10T02:07:33;15.03;;;5.77;;
12687;SDS011;6408;59.388;17.798;2023-06-10T02:10:00;16.93;;;5.23;;
12687;SDS011;6408;59.388;17.798;2023-06-10T02:12:29;13.23;;;5.07;;
12687;SDS011;6408;59.388;17.798;2023-06-10T02:14:56;15.97;;;5.23;;
12687;SDS011;6408;59.388;17.798;2023-06-10T02:17:23;11.53;;;5.30;;
12687;SDS011;6408;59.388;17.798;2023-06-10T02:19:51;15.33;;;5.07;;
12687;SDS011;6408;59.388;17.798;2023-06-10T02:22:19;10.20;;;4.63;;
12687;SDS011;6408;59.388;17.798;2023-06-10T02:24:47;13.20;;;5.63;;
12687;SDS011;6408;59.388;17.798;2023-06-10T02:27:15;13.83;;;4.53;;
12687;SDS011;6408;59.388;17.798;2023-06-10T02:29:44;13.17;;;4.27;;
12687;SDS011;6408;59.388;17.798;2023-06-10T02:32:11;12.33;;;4.37;;
12687;SDS011;6408;59.388;17.798;2023-06-10T02:34:38;10.70;;;4.57;;
12687;SDS011;6408;59.388;17.798;2023-06-10T02:37:07;8.40;;;4.00;;
12687;SDS011;6408;59.388;17.798;2023-06-10T02:39:35;7.67;;;4.03;;
12687;SDS011;6408;59.388;17.798;2023-06-10T02:42:02;9.93;;;3.87;;
12687;SDS011;6408;59.388;17.798;2023-06-10T02:44:30;10.30;;;3.90;;
12687;SDS011;6408;59.388;17.798;2023-06-10T02:46:59;11.40;;;3.43;;
12687;SDS011;6408;59.388;17.798;2023-06-10T02:49:26;9.73;;;3.43;;
12687;SDS011;6408;59.388;17.798;2023-06-10T02:51:53;5.40;;;2.37;;
12687;SDS011;6408;59.388;17.798;2023-06-10T02:54:22;7.00;;;2.57;;
12687;SDS011;6408;59.388;17.798;2023-06-10T02:56:49;6.57;;;2.20;;
12687;SDS011;6408;59.388;17.798;2023-06-10T02:59:17;3.73;;;1.80;;
12687;SDS011;6408;59.388;17.798;2023-06-10T03:01:45;4.57;;;1.77;;
12687;SDS011;6408;59.388;17.798;2023-06-10T03:04:15;4.00;;;2.10;;
12687;SDS011;6408;59.388;17.798;2023-06-10T03:06:43;3.73;;;1.90;;
12687;SDS011;6408;59.388;17.798;2023-06-10T03:09:12;4.50;;;1.83;;
12687;SDS011;6408;59.388;17.798;2023-06-10T03:11:39;4.07;;;1.90;;
12687;SDS011;6408;59.388;17.798;2023-06-10T03:14:07;4.20;;;2.23;;
12687;SDS011;6408;59.388;17.798;2023-06-10T03:16:34;4.47;;;2.17;;
12687;SDS011;6408;59.388;17.798;2023-06-10T03:19:05;5.13;;;2.37;;
12687;SDS011;6408;59.388;17.798;2023-06-10T03:21:34;4.17;;;2.10;;
12687;SDS011;6408;59.388;17.798;2023-06-10T03:24:02;5.23;;;2.37;;
12687;SDS011;6408;59.388;17.798;2023-06-10T03:26:30;3.13;;;2.10;;
12687;SDS011;6408;59.388;17.798;2023-06-10T03:28:57;4.93;;;2.13;;
12687;SDS011;6408;59.388;17.798;2023-06-10T03:31:24;4.77;;;1.87;;
12687;SDS011;6408;59.388;17.798;2023-06-10T03:33:52;3.53;;;2.10;;
12687;SDS011;6408;59.388;17.798;2023-06-10T03:36:19;4.30;;;1.90;;
12687;SDS011;6408;59.388;17.798;2023-06-10T03:38:47;4.37;;;1.57;;
12687;SDS011;6408;59.388;17.798;2023-06-10T03:41:16;2.70;;;1.60;;
12687;SDS011;6408;59.388;17.798;2023-06-10T03:43:44;2.70;;;1.50;;
12687;SDS011;6408;59.388;17.798;2023-06-10T03:46:12;3.23;;;1.40;;
12687;SDS011;6408;59.388;17.798;2023-06-10T03:48:39;3.23;;;1.40;;
12687;SDS011;6408;59.388;17.798;2023-06-10T03:51:06;2.60;;;1.40;;
12687;SDS011;6408;59.388;17.798;2023-06-10T03:53:33;3.13;;;1.33;;
12687;SDS011;6408;59.388;17.798;2023-06-10T03:56:01;2.63;;;1.27;;
12687;SDS011;6408;59.388;17.798;2023-06-10T03:58:29;2.87;;;1.40;;
12687;SDS011;6408;59.388;17.798;2023-06-10T04:00:56;4.23;;;1.20;;
12687;SDS011;6408;59.388;17.798;2023-06-10T04:03:24;0.90;;;0.80;;
12687;SDS011;6408;59.388;17.798;2023-06-10T04:05:52;2.53;;;1.40;;
12687;SDS011;6408;59.388;17.798;2023-06-10T04:08:19;1.73;;;1.03;;
12687;SDS011;6408;59.388;17.798;2023-06-10T04:10:47;3.30;;;1.13;;
12687;SDS011;6408;59.388;17.798;2023-06-10T04:13:15;2.63;;;1.00;;
12687;SDS011;6408;59.388;17.798;2023-06-10T04:15:44;1.47;;;0.90;;
12687;SDS011;6408;59.388;17.798;2023-06-10T04:18:12;2.30;;;0.80;;
12687;SDS011;6408;59.388;17.798;2023-06-10T04:20:40;1.03;;;0.83;;
12687;SDS011;6408;59.388;17.798;2023-06-10T04:23:07;2.70;;;0.90;;
12687;SDS011;6408;59.388;17.798;2023-06-10T04:25:34;1.17;;;0.80;;
12687;SDS011;6408;59.388;17.798;2023-06-10T04:28:02;0.97;;;0.87;;
12687;SDS011;6408;59.388;17.798;2023-06-10T04:30:31;2.03;;;0.90;;
12687;SDS011;6408;59.388;17.798;2023-06-10T04:32:58;2.13;;;0.67;;
12687;SDS011;6408;59.388;17.798;2023-06-10T04:35:25;1.23;;;0.80;;
12687;SDS011;6408;59.388;17.798;2023-06-10T04:37:53;2.30;;;0.60;;
12687;SDS011;6408;59.388;17.798;2023-06-10T04:40:20;1.07;;;0.70;;
12687;SDS011;6408;59.388;17.798;2023-06-10T04:42:48;0.93;;;0.60;;
12687;SDS011;6408;59.388;17.798;2023-06-10T04:45:15;0.87;;;0.73;;
12687;SDS011;6408;59.388;17.798;2023-06-10T04:47:44;0.90;;;0.63;;
12687;SDS011;6408;59.388;17.798;2023-06-10T04:50:11;1.77;;;0.80;;
12687;SDS011;6408;59.388;17.798;2023-06-10T04:52:38;0.52;;;0.52;;
12687;SDS011;6408;59.388;17.798;2023-06-10T04:55:06;1.35;;;0.70;;
12687;SDS011;6408;59.388;17.798;2023-06-10T04:57:35;0.80;;;0.77;;
12687;SDS011;6408;59.388;17.798;2023-06-10T05:00:03;0.60;;;0.50;;
12687;SDS011;6408;59.388;17.798;2023-06-10T05:02:31;0.77;;;0.70;;
12687;SDS011;6408;59.388;17.798;2023-06-10T05:05:00;0.80;;;0.80;;
12687;SDS011;6408;59.388;17.798;2023-06-10T05:07:27;1.23;;;0.70;;
12687;SDS011;6408;59.388;17.798;2023-06-10T05:09:54;0.70;;;0.47;;
12687;SDS011;6408;59.388;17.798;2023-06-10T05:12:22;0.90;;;0.90;;
12687;SDS011;6408;59.388;17.798;2023-06-10T05:14:49;0.83;;;0.60;;
12687;SDS011;6408;59.388;17.798;2023-06-10T05:17:16;0.88;;;0.70;;
12687;SDS011;6408;59.388;17.798;2023-06-10T05:19:43;1.05;;;0.50;;
12687;SDS011;6408;59.388;17.798;2023-06-10T05:22:13;0.82;;;0.52;;
12687;SDS011;6408;59.388;17.798;2023-06-10T05:24:41;1.48;;;0.50;;
12687;SDS011;6408;59.388;17.798;2023-06-10T05:27:09;0.68;;;0.65;;
12687;SDS011;6408;59.388;17.798;2023-06-10T05:29:37;0.70;;;0.52;;
12687;SDS011;6408;59.388;17.798;2023-06-10T05:32:05;0.50;;;0.50;;
12687;SDS011;6408;59.388;17.798;2023-06-10T05:34:33;1.42;;;0.50;;
12687;SDS011;6408;59.388;17.798;2023-06-10T05:37:04;0.47;;;0.47;;
12687;SDS011;6408;59.388;17.798;2023-06-10T05:39:33;0.43;;;0.43;;
12687;SDS011;6408;59.388;17.798;2023-06-10T05:42:04;1.05;;;0.60;;
12687;SDS011;6408;59.388;17.798;2023-06-10T05:44:33;0.70;;;0.50;;
12687;SDS011;6408;59.388;17.798;2023-06-10T05:47:01;1.67;;;0.70;;
12687;SDS011;6408;59.388;17.798;2023-06-10T05:49:28;2.10;;;0.80;;
12687;SDS011;6408;59.388;17.798;2023-06-10T05:51:56;0.60;;;0.60;;
12687;SDS011;6408;59.388;17.798;2023-06-10T05:54:26;0.57;;;0.57;;
12687;SDS011;6408;59.388;17.798;2023-06-10T05:56:56;0.65;;;0.65;;
12687;SDS011;6408;59.388;17.798;2023-06-10T05:59:23;0.50;;;0.50;;
12687;SDS011;6408;59.388;17.798;2023-06-10T06:01:50;0.35;;;0.35;;
12687;SDS011;6408;59.388;17.798;2023-06-10T06:04:17;0.40;;;0.40;;
12687;SDS011;6408;59.388;17.798;2023-06-10T06:06:55;1.00;;;0.60;;
12687;SDS011;6408;59.388;17.798;2023-06-10T06:09:23;2.35;;;0.50;;
12687;SDS011;6408;59.388;17.798;2023-06-10T06:11:50;0.93;;;0.60;;
12687;SDS011;6408;59.388;17.798;2023-06-10T06:14:19;0.70;;;0.52;;
12687;SDS011;6408;59.388;17.798;2023-06-10T06:16:46;0.63;;;0.63;;
12687;SDS011;6408;59.388;17.798;2023-06-10T06:19:14;2.17;;;0.60;;
12687;SDS011;6408;59.388;17.798;2023-06-10T06:21:41;0.57;;;0.57;;
12687;SDS011;6408;59.388;17.798;2023-06-10T06:24:09;0.85;;;0.63;;
12687;SDS011;6408;59.388;17.798;2023-06-10T06:26:36;0.60;;;0.60;;
12687;SDS011;6408;59.388;17.798;2023-06-10T06:29:03;0.80;;;0.80;;
12687;SDS011;6408;59.388;17.798;2023-06-10T06:31:31;0.40;;;0.40;;
12687;SDS011;6408;59.388;17.798;2023-06-10T06:33:59;0.45;;;0.45;;
12687;SDS011;6408;59.388;17.798;2023-06-10T06:36:27;0.65;;;0.65;;
12687;SDS011;6408;59.388;17.798;2023-06-10T06:38:54;0.95;;;0.50;;
12687;SDS011;6408;59.388;17.798;2023-06-10T06:41:21;1.00;;;0.73;;
12687;SDS011;6408;59.388;17.798;2023-06-10T06:43:48;0.80;;;0.77;;
12687;SDS011;6408;59.388;17.798;2023-06-10T06:46:15;0.57;;;0.57;;
12687;SDS011;6408;59.388;17.798;2023-06-10T06:48:44;0.88;;;0.60;;
12687;SDS011;6408;59.388;17.798;2023-06-10T06:51:11;0.68;;;0.68;;
12687;SDS011;6408;59.388;17.798;2023-06-10T06:53:39;0.90;;;0.52;;
12687;SDS011;6408;59.388;17.798;2023-06-10T06:56:09;0.77;;;0.60;;
12687;SDS011;6408;59.388;17.798;2023-06-10T06:58:37;0.65;;;0.65;;
12687;SDS011;6408;59.388;17.798;2023-06-10T07:01:04;1.67;;;0.80;;
12687;SDS011;6408;59.388;17.798;2023-06-10T07:03:32;0.63;;;0.45;;
12687;SDS011;6408;59.388;17.798;2023-06-10T07:06:00;0.70;;;0.60;;
12687;SDS011;6408;59.388;17.798;2023-06-10T07:08:27;0.50;;;0.47;;
12687;SDS011;6408;59.388;17.798;2023-06-10T07:10:55;2.50;;;1.00;;
12687;SDS011;6408;59.388;17.798;2023-06-10T07:13:22;0.60;;;0.60;;
12687;SDS011;6408;59.388;17.798;2023-06-10T07:15:50;1.65;;;0.70;;
12687;SDS011;6408;59.388;17.798;2023-06-10T07:18:18;0.82;;;0.80;;
12687;SDS011;6408;59.388;17.798;2023-06-10T07:20:45;1.30;;;0.60;;
12687;SDS011;6408;59.388;17.798;2023-06-10T07:23:14;0.77;;;0.70;;
12687;SDS011;6408;59.388;17.798;2023-06-10T07:25:41;0.50;;;0.50;;
12687;SDS011;6408;59.388;17.798;2023-06-10T07:28:09;0.50;;;0.50;;
12687;SDS011;6408;59.388;17.798;2023-06-10T07:30:36;0.52;;;0.52;;
12687;SDS011;6408;59.388;17.798;2023-06-10T07:33:04;0.50;;;0.50;;
12687;SDS011;6408;59.388;17.798;2023-06-10T07:35:32;1.23;;;0.52;;
12687;SDS011;6408;59.388;17.798;2023-06-10T07:38:00;0.60;;;0.60;;
12687;SDS011;6408;59.388;17.798;2023-06-10T07:40:29;1.05;;;0.70;;
12687;SDS011;6408;59.388;17.798;2023-06-10T07:42:56;0.70;;;0.70;;
12687;SDS011;6408;59.388;17.798;2023-06-10T07:45:23;0.80;;;0.80;;
12687;SDS011;6408;59.388;17.798;2023-06-10T07:47:50;1.52;;;0.70;;
12687;SDS011;6408;59.388;17.798;2023-06-10T07:50:17;0.60;;;0.60;;
12687;SDS011;6408;59.388;17.798;2023-06-10T07:52:45;0.82;;;0.60;;
12687;SDS011;6408;59.388;17.798;2023-06-10T07:55:14;1.00;;;0.90;;
12687;SDS011;6408;59.388;17.798;2023-06-10T07:57:43;0.60;;;0.60;;
12687;SDS011;6408;59.388;17.798;2023-06-10T08:00:10;1.20;;;0.60;;
12687;SDS011;6408;59.388;17.798;2023-06-10T08:02:37;0.75;;;0.70;;
12687;SDS011;6408;59.388;17.798;2023-06-10T08:05:05;0.65;;;0.65;;
12687;SDS011;6408;59.388;17.798;2023-06-10T08:07:33;1.40;;;0.70;;
12687;SDS011;6408;59.388;17.798;2023-06-10T08:10:00;0.60;;;0.60;;
12687;SDS011;6408;59.388;17.798;2023-06-10T08:12:27;0.85;;;0.80;;
12687;SDS011;6408;59.388;17.798;2023-06-10T08:14:56;1.27;;;1.00;;
12687;SDS011;6408;59.388;17.798;2023-06-10T08:17:23;1.33;;;0.75;;
12687;SDS011;6408;59.388;17.798;2023-06-10T08:19:50;1.55;;;1.05;;
12687;SDS011;6408;59.388;17.798;2023-06-10T08:22:17;2.40;;;0.70;;
12687;SDS011;6408;59.388;17.798;2023-06-10T08:24:45;1.10;;;0.93;;
12687;SDS011;6408;59.388;17.798;2023-06-10T08:27:12;2.42;;;1.27;;
12687;SDS011;6408;59.388;17.798;2023-06-10T08:29:39;1.58;;;1.40;;
12687;SDS011;6408;59.388;17.798;2023-06-10T08:32:08;2.25;;;1.52;;
12687;SDS011;6408;59.388;17.798;2023-06-10T08:34:36;4.15;;;1.70;;
12687;SDS011;6408;59.388;17.798;2023-06-10T08:37:04;3.78;;;1.55;;
12687;SDS011;6408;59.388;17.798;2023-06-10T08:39:31;3.30;;;1.50;;
12687;SDS011;6408;59.388;17.798;2023-06-10T08:42:00;2.80;;;1.65;;
12687;SDS011;6408;59.388;17.798;2023-06-10T08:44:36;2.17;;;1.30;;
12687;SDS011;6408;59.388;17.798;2023-06-10T08:47:05;2.75;;;1.63;;
12687;SDS011;6408;59.388;17.798;2023-06-10T08:49:41;3.83;;;1.70;;
12687;SDS011;6408;59.388;17.798;2023-06-10T08:52:13;2.63;;;1.85;;
12687;SDS011;6408;59.388;17.798;2023-06-10T08:54:42;3.75;;;1.70;;
12687;SDS011;6408;59.388;17.798;2023-06-10T08:57:15;2.65;;;1.60;;
12687;SDS011;6408;59.388;17.798;2023-06-10T08:59:45;1.92;;;1.60;;
12687;SDS011;6408;59.388;17.798;2023-06-10T09:02:13;2.00;;;1.20;;
12687;SDS011;6408;59.388;17.798;2023-06-10T09:04:46;2.50;;;1.20;;
12687;SDS011;6408;59.388;17.798;2023-06-10T09:07:14;4.43;;;1.02;;
12687;SDS011;6408;59.388;17.798;2023-06-10T09:09:42;1.20;;;1.10;;
12687;SDS011;6408;59.388;17.798;2023-06-10T09:12:10;1.10;;;1.00;;
12687;SDS011;6408;59.388;17.798;2023-06-10T09:14:39;1.17;;;1.05;;
12687;SDS011;6408;59.388;17.798;2023-06-10T09:17:07;2.38;;;1.20;;
12687;SDS011;6408;59.388;17.798;2023-06-10T09:19:35;1.33;;;1.00;;
12687;SDS011;6408;59.388;17.798;2023-06-10T09:22:05;0.93;;;0.82;;
12687;SDS011;6408;59.388;17.798;2023-06-10T09:24:32;1.00;;;0.90;;
12687;SDS011;6408;59.388;17.798;2023-06-10T09:27:03;1.80;;;0.82;;
12687;SDS011;6408;59.388;17.798;2023-06-10T09:29:31;1.02;;;0.80;;
12687;SDS011;6408;59.388;17.798;2023-06-10T09:32:12;1.70;;;0.75;;
12687;SDS011;6408;59.388;17.798;2023-06-10T09:34:39;1.50;;;0.80;;
12687;SDS011;6408;59.388;17.798;2023-06-10T09:37:08;0.70;;;0.70;;
12687;SDS011;6408;59.388;17.798;2023-06-10T09:39:38;1.55;;;0.70;;
12687;SDS011;6408;59.388;17.798;2023-06-10T09:42:17;0.93;;;0.80;;
12687;SDS011;6408;59.388;17.798;2023-06-10T09:44:49;1.67;;;0.90;;
12687;SDS011;6408;59.388;17.798;2023-06-10T09:47:22;0.70;;;0.70;;
12687;SDS011;6408;59.388;17.798;2023-06-10T09:49:49;2.28;;;0.95;;
12687;SDS011;6408;59.388;17.798;2023-06-10T09:52:22;0.85;;;0.70;;
12687;SDS011;6408;59.388;17.798;2023-06-10T09:54:50;0.70;;;0.70;;
12687;SDS011;6408;59.388;17.798;2023-06-10T09:57:18;2.78;;;0.95;;
12687;SDS011;6408;59.388;17.798;2023-06-10T09:59:47;1.55;;;0.93;;
12687;SDS011;6408;59.388;17.798;2023-06-10T10:02:19;0.80;;;0.70;;
12687;SDS011;6408;59.388;17.798;2023-06-10T10:04:47;0.93;;;0.80;;
12687;SDS011;6408;59.388;17.798;2023-06-10T10:07:15;1.23;;;0.90;;
12687;SDS011;6408;59.388;17.798;2023-06-10T10:09:44;1.15;;;0.77;;
12687;SDS011;6408;59.388;17.798;2023-06-10T10:12:12;1.05;;;0.80;;
12687;SDS011;6408;59.388;17.798;2023-06-10T10:14:43;1.52;;;0.90;;
12687;SDS011;6408;59.388;17.798;2023-06-10T10:17:14;1.40;;;0.88;;
12687;SDS011;6408;59.388;17.798;2023-06-10T10:19:43;1.00;;;0.90;;
12687;SDS011;6408;59.388;17.798;2023-06-10T10:22:15;1.23;;;0.80;;
12687;SDS011;6408;59.388;17.798;2023-06-10T10:24:49;0.88;;;0.77;;
12687;SDS011;6408;59.388;17.798;2023-06-10T10:27:18;1.08;;;0.98;;
12687;SDS011;6408;59.388;17.798;2023-06-10T10:29:54;2.38;;;0.70;;
12687;SDS011;6408;59.388;17.798;2023-06-10T10:32:26;0.80;;;0.80;;
12687;SDS011;6408;59.388;17.798;2023-06-10T10:35:03;0.82;;;0.80;;
12687;SDS011;6408;59.388;17.798;2023-06-10T10:37:35;0.93;;;0.80;;
12687;SDS011;6408;59.388;17.798;2023-06-10T10:40:06;1.60;;;1.00;;
12687;SDS011;6408;59.388;17.798;2023-06-10T10:42:34;0.80;;;0.80;;
12687;SDS011;6408;59.388;17.798;2023-06-10T10:45:03;1.48;;;0.80;;
12687;SDS011;6408;59.388;17.798;2023-06-10T10:47:32;1.17;;;0.70;;
12687;SDS011;6408;59.388;17.798;2023-06-10T10:50:01;1.27;;;0.85;;
12687;SDS011;6408;59.388;17.798;2023-06-10T10:52:46;0.88;;;0.88;;
12687;SDS011;6408;59.388;17.798;2023-06-10T10:55:20;0.77;;;0.77;;
12687;SDS011;6408;59.388;17.798;2023-06-10T10:57:54;2.05;;;1.00;;
12687;SDS011;6408;59.388;17.798;2023-06-10T11:00:29;2.15;;;1.00;;
12687;SDS011;6408;59.388;17.798;2023-06-10T11:02:58;1.95;;;0.80;;
12687;SDS011;6408;59.388;17.798;2023-06-10T11:05:31;1.17;;;0.80;;
12687;SDS011;6408;59.388;17.798;2023-06-10T11:08:03;1.38;;;0.70;;
12687;SDS011;6408;59.388;17.798;2023-06-10T11:10:32;0.70;;;0.70;;
12687;SDS011;6408;59.388;17.798;2023-06-10T11:13:00;0.80;;;0.80;;
12687;SDS011;6408;59.388;17.798;2023-06-10T11:15:33;0.75;;;0.75;;
12687;SDS011;6408;59.388;17.798;2023-06-10T11:18:11;0.93;;;0.88;;
12687;SDS011;6408;59.388;17.798;2023-06-10T11:20:56;1.02;;;0.80;;
12687;SDS011;6408;59.388;17.798;2023-06-10T11:23:26;0.90;;;0.85;;
12687;SDS011;6408;59.388;17.798;2023-06-10T11:26:17;1.55;;;0.80;;
12687;SDS011;6408;59.388;17.798;2023-06-10T11:29:08;1.00;;;0.80;;
12687;SDS011;6408;59.388;17.798;2023-06-10T11:31:43;0.77;;;0.70;;
12687;SDS011;6408;59.388;17.798;2023-06-10T11:34:13;2.70;;;0.85;;
12687;SDS011;6408;59.388;17.798;2023-06-10T11:36:48;0.95;;;0.90;;
12687;SDS011;6408;59.388;17.798;2023-06-10T11:39:16;0.98;;;0.77;;
12687;SDS011;6408;59.388;17.798;2023-06-10T11:41:47;0.98;;;0.80;;
12687;SDS011;6408;59.388;17.798;2023-06-10T11:44:15;1.05;;;1.00;;
12687;SDS011;6408;59.388;17.798;2023-06-10T11:46:43;1.33;;;1.05;;
12687;SDS011;6408;59.388;17.798;2023-06-10T11:49:11;2.50;;;0.90;;
12687;SDS011;6408;59.388;17.798;2023-06-10T11:51:39;0.70;;;0.70;;
12687;SDS011;6408;59.388;17.798;2023-06-10T11:54:14;0.98;;;0.77;;
12687;SDS011;6408;59.388;17.798;2023-06-10T11:56:42;0.73;;;0.73;;
12687;SDS011;6408;59.388;17.798;2023-06-10T11:59:12;1.25;;;1.13;;
12687;SDS011;6408;59.388;17.798;2023-06-10T12:01:42;1.05;;;0.95;;
12687;SDS011;6408;59.388;17.798;2023-06-10T12:04:10;1.17;;;0.90;;
12687;SDS011;6408;59.388;17.798;2023-06-10T12:06:42;2.97;;;1.17;;
12687;SDS011;6408;59.388;17.798;2023-06-10T12:09:15;1.75;;;0.93;;
12687;SDS011;6408;59.388;17.798;2023-06-10T12:11:44;0.90;;;0.90;;
12687;SDS011;6408;59.388;17.798;2023-06-10T12:14:16;0.88;;;0.88;;
12687;SDS011;6408;59.388;17.798;2023-06-10T12:17:21;0.80;;;0.80;;
12687;SDS011;6408;59.388;17.798;2023-06-10T12:19:50;0.70;;;0.70;;
12687;SDS011;6408;59.388;17.798;2023-06-10T12:22:18;5.03;;;1.00;;
12687;SDS011;6408;59.388;17.798;2023-06-10T12:24:57;1.50;;;0.90;;
12687;SDS011;6408;59.388;17.798;2023-06-10T12:27:26;2.55;;;1.00;;
12687;SDS011;6408;59.388;17.798;2023-06-10T12:29:56;1.00;;;0.90;;
12687;SDS011;6408;59.388;17.798;2023-06-10T12:32:34;2.00;;;0.90;;
12687;SDS011;6408;59.388;17.798;2023-06-10T12:35:03;0.60;;;0.60;;
12687;SDS011;6408;59.388;17.798;2023-06-10T12:37:32;2.15;;;0.90;;
12687;SDS011;6408;59.388;17.798;2023-06-10T12:40:00;0.90;;;0.90;;
12687;SDS011;6408;59.388;17.798;2023-06-10T12:42:28;1.00;;;0.90;;
12687;SDS011;6408;59.388;17.798;2023-06-10T12:45:00;1.73;;;0.90;;
12687;SDS011;6408;59.388;17.798;2023-06-10T12:47:31;0.98;;;0.98;;
12687;SDS011;6408;59.388;17.798;2023-06-10T12:50:00;1.00;;;0.80;;
12687;SDS011;6408;59.388;17.798;2023-06-10T12:52:28;0.80;;;0.80;;
12687;SDS011;6408;59.388;17.798;2023-06-10T12:54:55;0.98;;;0.98;;
12687;SDS011;6408;59.388;17.798;2023-06-10T12:57:23;0.90;;;0.85;;
12687;SDS011;6408;59.388;17.798;2023-06-10T12:59:51;1.23;;;0.98;;
12687;SDS011;6408;59.388;17.798;2023-06-10T13:02:20;1.13;;;1.02;;
12687;SDS011;6408;59.388;17.798;2023-06-10T13:04:49;3.30;;;1.00;;
12687;SDS011;6408;59.388;17.798;2023-06-10T13:07:17;1.00;;;0.90;;
12687;SDS011;6408;59.388;17.798;2023-06-10T13:09:45;0.70;;;0.70;;
12687;SDS011;6408;59.388;17.798;2023-06-10T13:12:13;0.93;;;0.80;;
12687;SDS011;6408;59.388;17.798;2023-06-10T13:14:42;0.73;;;0.73;;
12687;SDS011;6408;59.388;17.798;2023-06-10T13:17:10;0.80;;;0.77;;
12687;SDS011;6408;59.388;17.798;2023-06-10T13:19:39;1.85;;;0.90;;
12687;SDS011;6408;59.388;17.798;2023-06-10T13:22:07;2.55;;;0.90;;
12687;SDS011;6408;59.388;17.798;2023-06-10T13:24:35;1.15;;;0.90;;
12687;SDS011;6408;59.388;17.798;2023-06-10T13:27:05;0.80;;;0.80;;
12687;SDS011;6408;59.388;17.798;2023-06-10T13:29:33;0.80;;;0.80;;
12687;SDS011;6408;59.388;17.798;2023-06-10T13:32:01;0.90;;;0.90;;
12687;SDS011;6408;59.388;17.798;2023-06-10T13:34:28;1.30;;;0.90;;
12687;SDS011;6408;59.388;17.798;2023-06-10T13:36:57;1.05;;;1.00;;
12687;SDS011;6408;59.388;17.798;2023-06-10T13:39:25;1.00;;;0.90;;
12687;SDS011;6408;59.388;17.798;2023-06-10T13:41:52;1.58;;;0.80;;
12687;SDS011;6408;59.388;17.798;2023-06-10T13:44:19;0.80;;;0.80;;
12687;SDS011;6408;59.388;17.798;2023-06-10T13:46:47;2.28;;;0.93;;
12687;SDS011;6408;59.388;17.798;2023-06-10T13:49:14;2.58;;;0.90;;
12687;SDS011;6408;59.388;17.798;2023-06-10T13:51:42;1.10;;;1.00;;
12687;SDS011;6408;59.388;17.798;2023-06-10T13:54:11;0.80;;;0.80;;
12687;SDS011;6408;59.388;17.798;2023-06-10T13:56:39;0.80;;;0.80;;
12687;SDS011;6408;59.388;17.798;2023-06-10T13:59:06;1.00;;;0.90;;
12687;SDS011;6408;59.388;17.798;2023-06-10T14:01:34;2.47;;;1.33;;
12687;SDS011;6408;59.388;17.798;2023-06-10T14:04:02;1.45;;;0.80;;
12687;SDS011;6408;59.388;17.798;2023-06-10T14:06:30;2.15;;;1.00;;
12687;SDS011;6408;59.388;17.798;2023-06-10T14:08:58;0.70;;;0.70;;
12687;SDS011;6408;59.388;17.798;2023-06-10T14:11:27;0.73;;;0.73;;
12687;SDS011;6408;59.388;17.798;2023-06-10T14:13:54;1.02;;;0.85;;
12687;SDS011;6408;59.388;17.798;2023-06-10T14:16:22;1.08;;;0.95;;
12687;SDS011;6408;59.388;17.798;2023-06-10T14:18:50;0.80;;;0.80;;
12687;SDS011;6408;59.388;17.798;2023-06-10T14:21:18;0.93;;;0.90;;
12687;SDS011;6408;59.388;17.798;2023-06-10T14:23:45;1.00;;;0.93;;
12687;SDS011;6408;59.388;17.798;2023-06-10T14:26:14;1.00;;;0.90;;
12687;SDS011;6408;59.388;17.798;2023-06-10T14:28:43;0.90;;;0.90;;
12687;SDS011;6408;59.388;17.798;2023-06-10T14:31:10;1.15;;;0.88;;
12687;SDS011;6408;59.388;17.798;2023-06-10T14:33:38;1.40;;;1.08;;
12687;SDS011;6408;59.388;17.798;2023-06-10T14:36:07;0.90;;;0.90;;
12687;SDS011;6408;59.388;17.798;2023-06-10T14:38:34;1.00;;;0.90;;
12687;SDS011;6408;59.388;17.798;2023-06-10T14:41:01;1.42;;;0.90;;
12687;SDS011;6408;59.388;17.798;2023-06-10T14:43:29;2.00;;;0.80;;
12687;SDS011;6408;59.388;17.798;2023-06-10T14:45:58;1.15;;;0.70;;
12687;SDS011;6408;59.388;17.798;2023-06-10T14:48:26;1.40;;;0.80;;
12687;SDS011;6408;59.388;17.798;2023-06-10T14:50:53;1.88;;;1.05;;
12687;SDS011;6408;59.388;17.798;2023-06-10T14:53:21;0.88;;;0.82;;
12687;SDS011;6408;59.388;17.798;2023-06-10T14:55:48;1.92;;;1.00;;
12687;SDS011;6408;59.388;17.798;2023-06-10T14:58:15;1.00;;;0.80;;